createdAt,value
2023-02-24T00:02:00.253Z,11.30
2023-02-24T00:04:31.596Z,11.17
2023-02-24T00:07:00.040Z,12.00
2023-02-24T00:09:29.235Z,11.60
2023-02-24T00:11:59.978Z,10.70
2023-02-24T00:14:30.811Z,9.77
2023-02-24T00:17:01.351Z,8.73
2023-02-24T00:19:34.368Z,8.40
2023-02-24T00:22:03.011Z,8.13
2023-02-24T00:24:31.331Z,8.35
2023-02-24T00:27:01.185Z,8.77
2023-02-24T00:29:30.086Z,7.43
2023-02-24T00:32:00.695Z,7.30
2023-02-24T00:34:30.393Z,8.75
2023-02-24T00:36:58.795Z,7.73
2023-02-24T00:39:35.473Z,6.27
2023-02-24T00:42:06.004Z,6.23
2023-02-24T00:44:47.583Z,7.40
2023-02-24T00:47:16.796Z,7.33
2023-02-24T00:49:44.351Z,7.47
2023-02-24T00:52:18.291Z,6.57
2023-02-24T00:54:49.776Z,8.07
2023-02-24T00:57:18.705Z,7.70
2023-02-24T00:59:47.855Z,7.90
2023-02-24T01:02:15.705Z,7.07
2023-02-24T01:04:45.265Z,7.25
2023-02-24T01:07:14.532Z,6.23
2023-02-24T01:09:44.040Z,6.90
2023-02-24T01:12:22.564Z,5.60
2023-02-24T01:14:53.334Z,6.25
2023-02-24T01:17:21.656Z,6.47
2023-02-24T01:19:50.058Z,7.30
2023-02-24T01:22:19.972Z,7.03
2023-02-24T01:24:48.664Z,7.90
2023-02-24T01:27:20.259Z,5.75
2023-02-24T01:29:48.654Z,6.77
2023-02-24T01:32:21.869Z,6.83
2023-02-24T01:34:53.440Z,7.20
2023-02-24T01:37:21.542Z,7.17
2023-02-24T01:39:49.197Z,7.27
2023-02-24T01:42:21.793Z,7.87
2023-02-24T01:44:49.193Z,7.67
2023-02-24T01:47:21.373Z,6.70
2023-02-24T01:49:53.965Z,7.17
2023-02-24T01:52:30.729Z,6.47
2023-02-24T01:55:13.988Z,6.20
2023-02-24T01:57:42.803Z,6.67
2023-02-24T02:00:20.486Z,7.20
2023-02-24T02:02:51.606Z,5.73
2023-02-24T02:05:19.097Z,5.77
2023-02-24T02:07:46.659Z,5.80
2023-02-24T02:10:14.665Z,5.90
2023-02-24T02:12:44.755Z,6.23
2023-02-24T02:15:16.409Z,6.20
2023-02-24T02:18:00.036Z,6.20
2023-02-24T02:21:01.075Z,6.23
2023-02-24T02:23:58.102Z,5.80
2023-02-24T02:26:44.628Z,6.57
2023-02-24T02:29:41.264Z,5.87
2023-02-24T02:32:38.479Z,6.30
2023-02-24T02:35:29.479Z,6.27
2023-02-24T02:38:52.487Z,6.17
2023-02-24T02:41:20.400Z,5.93
2023-02-24T02:44:03.212Z,6.13
2023-02-24T02:46:53.883Z,5.20
2023-02-24T02:49:38.806Z,5.30
2023-02-24T02:52:27.592Z,6.83
2023-02-24T02:55:10.304Z,4.53
2023-02-24T02:57:47.374Z,6.27
2023-02-24T03:00:21.657Z,4.80
2023-02-24T03:02:56.266Z,4.90
2023-02-24T03:05:33.433Z,4.43
2023-02-24T03:08:04.998Z,3.80
2023-02-24T03:10:34.499Z,4.23
2023-02-24T03:13:06.347Z,4.27
2023-02-24T03:15:34.631Z,4.53
2023-02-24T03:18:12.196Z,5.12
2023-02-24T03:20:49.602Z,3.40
2023-02-24T03:23:25.409Z,3.40
2023-02-24T03:26:08.122Z,3.67
2023-02-24T03:28:49.008Z,4.03
2023-02-24T03:31:23.640Z,3.07
2023-02-24T03:34:16.398Z,3.77
2023-02-24T03:36:44.588Z,3.40
2023-02-24T03:39:12.612Z,3.72
2023-02-24T03:42:26.636Z,3.53
2023-02-24T03:44:58.361Z,4.00
2023-02-24T03:47:26.346Z,3.03
2023-02-24T03:49:54.192Z,3.47
2023-02-24T03:52:25.339Z,3.33
2023-02-24T03:55:06.440Z,2.93
2023-02-24T03:57:55.901Z,2.90
2023-02-24T04:00:53.802Z,3.07
2023-02-24T04:03:37.515Z,3.43
2023-02-24T04:06:14.434Z,3.27
2023-02-24T04:09:13.275Z,2.93
2023-02-24T04:12:04.576Z,2.90
2023-02-24T04:14:55.333Z,3.90
2023-02-24T04:17:55.008Z,2.90
2023-02-24T04:20:29.578Z,3.33
2023-02-24T04:23:04.963Z,7.00
2023-02-24T04:25:33.100Z,9.17
2023-02-24T04:28:03.414Z,4.83
2023-02-24T04:30:35.887Z,5.83
2023-02-24T04:33:03.967Z,3.23
2023-02-24T04:35:33.284Z,2.90
2023-02-24T04:38:01.285Z,3.00
2023-02-24T04:40:29.460Z,2.83
2023-02-24T04:42:57.068Z,2.83
2023-02-24T04:45:27.068Z,3.83
2023-02-24T04:48:01.259Z,3.97
2023-02-24T04:50:35.046Z,2.67
2023-02-24T04:53:07.374Z,2.70
2023-02-24T04:55:40.314Z,3.70
2023-02-24T04:58:13.822Z,3.10
2023-02-24T05:00:42.260Z,3.80
2023-02-24T05:03:12.791Z,3.20
2023-02-24T05:05:43.029Z,3.17
2023-02-24T05:08:11.166Z,3.03
2023-02-24T05:10:41.943Z,3.07
2023-02-24T05:13:11.558Z,3.23
2023-02-24T05:15:42.129Z,2.97
2023-02-24T05:18:14.929Z,3.20
2023-02-24T05:21:03.448Z,3.60
2023-02-24T05:23:44.529Z,2.63
2023-02-24T05:26:18.269Z,2.50
2023-02-24T05:28:52.414Z,4.47
2023-02-24T05:31:24.324Z,3.60
2023-02-24T05:34:00.283Z,2.93
2023-02-24T05:36:40.736Z,3.33
2023-02-24T05:39:12.214Z,2.43
2023-02-24T05:41:43.097Z,2.83
2023-02-24T05:44:16.138Z,3.90
2023-02-24T05:46:46.195Z,4.33
2023-02-24T05:49:24.179Z,8.60
2023-02-24T05:51:56.327Z,3.60
2023-02-24T05:54:36.033Z,3.80
2023-02-24T05:57:12.596Z,3.50
2023-02-24T05:59:41.627Z,3.67
2023-02-24T06:04:54.276Z,3.20
2023-02-24T06:07:25.130Z,3.10
2023-02-24T06:09:56.808Z,3.23
2023-02-24T06:12:29.685Z,3.27
2023-02-24T06:15:00.400Z,3.13
2023-02-24T06:17:28.606Z,4.13
2023-02-24T06:19:56.313Z,4.37
2023-02-24T06:22:26.274Z,3.70
2023-02-24T06:24:55.388Z,7.00
2023-02-24T06:27:25.359Z,5.05
2023-02-24T06:29:55.044Z,4.30
2023-02-24T06:32:25.037Z,3.35
2023-02-24T06:34:54.316Z,4.57
2023-02-24T06:37:23.416Z,5.43
2023-02-24T06:39:50.785Z,7.70
2023-02-24T06:42:18.587Z,5.70
2023-02-24T06:44:47.022Z,4.53
2023-02-24T06:47:16.498Z,4.27
2023-02-24T06:49:44.132Z,4.27
2023-02-24T06:52:18.766Z,4.60
2023-02-24T06:54:52.559Z,5.60
2023-02-24T06:57:20.849Z,4.13
2023-02-24T06:59:49.210Z,3.75
2023-02-24T07:02:17.874Z,4.70
2023-02-24T07:04:45.438Z,3.97
2023-02-24T07:07:14.662Z,4.23
2023-02-24T07:09:42.915Z,4.65
2023-02-24T07:12:11.397Z,4.10
2023-02-24T07:14:40.731Z,4.15
2023-02-24T07:17:08.982Z,4.68
2023-02-24T07:19:36.951Z,4.17
2023-02-24T07:22:05.252Z,5.17
2023-02-24T07:24:36.809Z,4.63
2023-02-24T07:27:11.755Z,4.50
2023-02-24T07:29:39.632Z,3.90
2023-02-24T07:32:09.679Z,4.83
2023-02-24T07:34:41.005Z,4.63
2023-02-24T07:37:09.839Z,4.80
2023-02-24T07:39:39.541Z,4.55
2023-02-24T07:42:09.177Z,4.27
2023-02-24T07:44:39.293Z,4.50
2023-02-24T07:47:08.475Z,4.10
2023-02-24T07:49:36.962Z,5.03
2023-02-24T07:52:08.354Z,4.03
2023-02-24T07:54:37.539Z,4.70
2023-02-24T07:57:06.231Z,5.00
2023-02-24T07:59:38.155Z,4.47
2023-02-24T08:02:07.994Z,4.23
2023-02-24T08:04:40.112Z,4.77
2023-02-24T08:07:14.512Z,4.63
2023-02-24T08:09:45.878Z,4.87
2023-02-24T08:12:18.681Z,4.77
2023-02-24T08:14:53.651Z,4.47
2023-02-24T08:17:24.202Z,4.87
2023-02-24T08:20:12.443Z,4.33
2023-02-24T08:22:44.155Z,4.73
2023-02-24T08:25:19.078Z,7.20
2023-02-24T08:28:07.285Z,4.87
2023-02-24T08:30:39.315Z,4.40
2023-02-24T08:33:09.802Z,5.00
2023-02-24T08:35:40.333Z,6.33
2023-02-24T08:38:25.276Z,4.60
2023-02-24T08:40:55.947Z,4.40
2023-02-24T08:46:18.792Z,4.60
2023-02-24T08:48:58.242Z,5.33
2023-02-24T08:51:35.534Z,9.17
2023-02-24T08:54:11.441Z,5.80
2023-02-24T08:56:44.098Z,6.23
2023-02-24T08:59:38.023Z,6.57
2023-02-24T09:02:29.316Z,7.60
2023-02-24T09:05:03.629Z,6.97
2023-02-24T09:07:35.760Z,6.90
2023-02-24T09:10:12.376Z,7.10
2023-02-24T09:12:41.488Z,5.20
2023-02-24T09:15:15.558Z,6.80
2023-02-24T09:17:45.330Z,8.50
2023-02-24T09:20:27.724Z,4.80
2023-02-24T09:23:09.081Z,6.40
2023-02-24T09:25:45.034Z,7.90
2023-02-24T09:28:25.116Z,7.10
2023-02-24T09:30:54.056Z,5.67
2023-02-24T09:33:27.209Z,5.43
2023-02-24T09:36:10.670Z,7.50
2023-02-24T09:39:01.939Z,6.43
2023-02-24T09:41:59.711Z,8.13
2023-02-24T09:44:42.230Z,5.60
2023-02-24T09:47:40.025Z,6.87
2023-02-24T09:50:46.929Z,5.70
2023-02-24T09:53:17.790Z,6.13
2023-02-24T09:56:00.478Z,7.35
2023-02-24T09:58:48.130Z,5.70
2023-02-24T10:01:48.295Z,5.23
2023-02-24T10:04:25.109Z,6.87
2023-02-24T10:07:03.223Z,7.57
2023-02-24T10:09:55.241Z,5.32
2023-02-24T10:12:32.143Z,6.50
2023-02-24T10:15:19.255Z,6.17
2023-02-24T10:17:56.347Z,5.20
2023-02-24T10:20:39.833Z,6.47
2023-02-24T10:23:18.099Z,6.00
2023-02-24T10:25:55.662Z,5.95
2023-02-24T10:28:59.045Z,8.33
2023-02-24T10:31:43.602Z,5.57
2023-02-24T10:34:20.528Z,9.00
2023-02-24T10:36:50.638Z,8.60
2023-02-24T10:39:27.360Z,6.28
2023-02-24T10:41:58.065Z,7.57
2023-02-24T10:44:36.727Z,6.67
2023-02-24T10:47:13.711Z,8.85
2023-02-24T10:49:59.828Z,6.77
2023-02-24T10:52:50.765Z,6.10
2023-02-24T10:55:45.916Z,8.80
2023-02-24T10:58:28.650Z,9.13
2023-02-24T11:01:07.552Z,8.40
2023-02-24T11:03:46.528Z,8.77
2023-02-24T11:06:49.223Z,8.55
2023-02-24T11:09:27.593Z,10.80
2023-02-24T11:12:34.967Z,8.20
2023-02-24T11:15:25.372Z,8.13
2023-02-24T11:17:58.933Z,8.43
2023-02-24T11:20:48.348Z,7.60
2023-02-24T11:23:26.116Z,8.00
2023-02-24T11:26:12.136Z,8.53
2023-02-24T11:29:04.483Z,9.23
2023-02-24T11:31:53.264Z,7.07
2023-02-24T11:34:29.188Z,7.07
2023-02-24T11:37:14.815Z,8.47
2023-02-24T11:39:47.698Z,8.33
2023-02-24T11:42:22.679Z,9.13
2023-02-24T11:45:03.333Z,9.77
2023-02-24T11:47:45.666Z,11.43
2023-02-24T11:50:36.485Z,11.70
2023-02-24T11:53:14.610Z,10.23
2023-02-24T11:55:47.111Z,11.67
2023-02-24T11:58:23.218Z,9.90
2023-02-24T12:00:57.986Z,10.77
2023-02-24T12:03:29.649Z,9.37
2023-02-24T12:06:04.012Z,8.40
2023-02-24T12:08:41.294Z,9.30
2023-02-24T12:11:26.942Z,10.10
2023-02-24T12:14:07.180Z,9.00
2023-02-24T12:16:42.145Z,7.47
2023-02-24T12:19:20.177Z,9.17
2023-02-24T12:21:56.695Z,10.40
2023-02-24T12:24:25.330Z,9.00
2023-02-24T12:27:43.463Z,8.87
2023-02-24T12:30:34.413Z,8.88
2023-02-24T12:33:32.140Z,9.27
2023-02-24T12:36:19.402Z,8.73
2023-02-24T12:39:07.131Z,9.33
2023-02-24T12:41:59.571Z,8.00
2023-02-24T12:44:44.027Z,9.00
2023-02-24T12:47:17.637Z,8.17
2023-02-24T12:50:09.261Z,7.83
2023-02-24T12:52:59.101Z,8.27
2023-02-24T12:55:47.076Z,7.87
2023-02-24T12:58:25.792Z,8.25
2023-02-24T13:01:23.726Z,8.27
2023-02-24T13:04:00.895Z,8.02
2023-02-24T13:06:52.966Z,9.50
2023-02-24T13:09:26.879Z,9.50
2023-02-24T13:12:27.424Z,8.20
2023-02-24T13:14:56.513Z,8.57
2023-02-24T13:17:29.823Z,8.35
2023-02-24T13:19:57.501Z,9.70
2023-02-24T13:22:28.480Z,11.40
2023-02-24T13:25:07.906Z,11.67
2023-02-24T13:27:39.028Z,11.93
2023-02-24T13:30:12.379Z,11.53
2023-02-24T13:32:45.623Z,10.17
2023-02-24T13:35:15.893Z,10.87
2023-02-24T13:37:46.145Z,12.67
2023-02-24T13:40:19.332Z,11.43
2023-02-24T13:42:56.474Z,9.60
2023-02-24T13:45:29.393Z,8.33
2023-02-24T13:48:34.923Z,9.50
2023-02-24T13:51:02.585Z,8.87
2023-02-24T13:54:02.221Z,8.07
2023-02-24T13:57:05.653Z,8.83
2023-02-24T13:59:33.284Z,12.83
2023-02-24T14:02:08.161Z,12.50
2023-02-24T14:04:39.604Z,12.93
2023-02-24T14:07:11.870Z,11.97
2023-02-24T14:09:46.589Z,21.47
2023-02-24T14:12:24.090Z,12.53
2023-02-24T14:14:52.873Z,11.23
2023-02-24T14:17:40.519Z,10.02
2023-02-24T14:20:11.639Z,10.73
2023-02-24T14:22:48.701Z,9.23
2023-02-24T14:25:17.172Z,11.12
2023-02-24T14:27:47.407Z,10.07
2023-02-24T14:30:25.189Z,9.90
2023-02-24T14:32:53.670Z,8.65
2023-02-24T14:35:31.490Z,11.40
2023-02-24T14:38:01.340Z,10.98
2023-02-24T14:40:30.258Z,8.82
2023-02-24T14:42:57.856Z,9.27
2023-02-24T14:45:28.572Z,9.27
2023-02-24T14:47:56.894Z,8.73
2023-02-24T14:50:34.325Z,15.02
2023-02-24T14:53:14.039Z,24.15
2023-02-24T14:55:46.995Z,25.80
2023-02-24T14:58:25.256Z,11.45
2023-02-24T15:01:07.153Z,10.03
2023-02-24T15:03:44.605Z,9.95
2023-02-24T15:06:40.921Z,9.30
2023-02-24T15:09:33.271Z,7.80
2023-02-24T15:12:12.839Z,7.23
2023-02-24T15:14:47.494Z,7.67
2023-02-24T15:17:20.800Z,10.23
2023-02-24T15:19:54.617Z,11.00
2023-02-24T15:22:25.776Z,12.00
2023-02-24T15:24:56.197Z,11.37
2023-02-24T15:27:27.213Z,9.10
2023-02-24T15:30:27.208Z,16.67
2023-02-24T15:33:28.297Z,15.53
2023-02-24T15:35:58.650Z,20.43
2023-02-24T15:38:43.605Z,21.03
2023-02-24T15:41:12.974Z,21.30
2023-02-24T15:43:50.317Z,23.98
2023-02-24T15:46:24.364Z,21.67
2023-02-24T15:48:54.002Z,15.17
2023-02-24T15:51:29.453Z,11.97
2023-02-24T15:53:56.975Z,11.63
2023-02-24T15:56:24.792Z,12.43
2023-02-24T15:58:52.180Z,23.00
2023-02-24T16:01:20.296Z,34.60
2023-02-24T16:03:48.074Z,25.92
2023-02-24T16:06:21.447Z,15.50
2023-02-24T16:08:50.857Z,13.80
2023-02-24T16:11:23.105Z,11.90
2023-02-24T16:13:57.354Z,11.07
2023-02-24T16:16:26.070Z,24.77
2023-02-24T16:18:54.153Z,31.60
2023-02-24T16:21:21.542Z,23.37
2023-02-24T16:23:48.980Z,20.03
2023-02-24T16:26:19.321Z,29.97
2023-02-24T16:28:57.274Z,53.67
2023-02-24T16:31:27.772Z,38.08
2023-02-24T16:33:56.082Z,35.47
2023-02-24T16:36:25.810Z,28.25
2023-02-24T16:38:53.898Z,46.17
2023-02-24T16:41:21.321Z,40.47
2023-02-24T16:43:48.619Z,44.23
2023-02-24T16:46:20.349Z,42.90
2023-02-24T16:48:50.248Z,37.67
2023-02-24T16:51:18.093Z,40.77
2023-02-24T16:53:45.566Z,44.73
2023-02-24T16:56:15.258Z,32.77
2023-02-24T16:58:42.931Z,38.60
2023-02-24T17:01:18.374Z,37.67
2023-02-24T17:03:49.137Z,37.43
2023-02-24T17:06:16.635Z,32.63
2023-02-24T17:08:46.197Z,45.97
2023-02-24T17:11:15.976Z,53.20
2023-02-24T17:13:44.258Z,55.17
2023-02-24T17:16:12.148Z,58.42
2023-02-24T17:18:39.858Z,54.90
2023-02-24T17:21:07.268Z,55.70
2023-02-24T17:23:34.771Z,53.10
2023-02-24T17:26:02.937Z,53.53
2023-02-24T17:28:30.401Z,52.50
2023-02-24T17:30:57.829Z,46.20
2023-02-24T17:33:25.457Z,52.27
2023-02-24T17:35:52.891Z,60.73
2023-02-24T17:38:23.374Z,64.20
2023-02-24T17:40:51.082Z,61.07
2023-02-24T17:43:19.185Z,57.87
2023-02-24T17:45:47.243Z,62.23
2023-02-24T17:48:16.192Z,62.62
2023-02-24T17:50:45.478Z,59.25
2023-02-24T17:53:12.954Z,56.30
2023-02-24T17:55:55.780Z,57.13
2023-02-24T17:58:27.637Z,60.43
2023-02-24T18:00:55.757Z,72.62
2023-02-24T18:03:24.159Z,62.80
2023-02-24T18:05:59.578Z,70.03
2023-02-24T18:08:27.551Z,66.37
2023-02-24T18:10:55.539Z,61.13
2023-02-24T18:13:23.011Z,71.73
2023-02-24T18:15:50.637Z,87.90
2023-02-24T18:18:18.022Z,77.07
2023-02-24T18:20:45.398Z,77.53
2023-02-24T18:23:13.538Z,78.60
2023-02-24T18:25:40.846Z,68.50
2023-02-24T18:28:09.062Z,54.77
2023-02-24T18:30:39.751Z,56.50
2023-02-24T18:33:07.326Z,56.30
2023-02-24T18:35:36.112Z,53.67
2023-02-24T18:38:05.350Z,61.53
2023-02-24T18:40:32.750Z,60.93
2023-02-24T18:43:00.147Z,52.47
2023-02-24T18:45:27.842Z,52.70
2023-02-24T18:47:55.229Z,44.80
2023-02-24T18:50:25.258Z,46.40
2023-02-24T18:52:52.889Z,94.13
2023-02-24T18:55:22.323Z,102.63
2023-02-24T18:57:49.863Z,106.77
2023-02-24T19:00:18.239Z,90.63
2023-02-24T19:02:47.458Z,96.45
2023-02-24T19:05:14.743Z,109.15
2023-02-24T19:07:43.244Z,78.67
2023-02-24T19:10:11.615Z,62.28
2023-02-24T19:12:39.369Z,51.63
2023-02-24T19:15:07.592Z,52.37
2023-02-24T19:17:35.047Z,55.03
2023-02-24T19:20:02.555Z,58.37
2023-02-24T19:22:30.291Z,95.80
2023-02-24T19:24:58.876Z,91.77
2023-02-24T19:27:28.669Z,89.93
2023-02-24T19:29:56.335Z,88.90
2023-02-24T19:32:23.806Z,82.07
2023-02-24T19:34:51.176Z,85.40
2023-02-24T19:37:18.872Z,83.83
2023-02-24T19:39:46.314Z,74.73
2023-02-24T19:42:13.560Z,70.70
2023-02-24T19:44:41.289Z,40.70
2023-02-24T19:47:08.721Z,37.03
2023-02-24T19:49:36.088Z,35.80
2023-02-24T19:52:03.787Z,18.13
2023-02-24T19:54:31.239Z,40.90
2023-02-24T19:56:58.671Z,75.57
2023-02-24T19:59:26.453Z,82.70
2023-02-24T20:01:57.141Z,74.27
2023-02-24T20:04:25.081Z,52.87
2023-02-24T20:06:52.580Z,39.17
2023-02-24T20:09:21.567Z,31.43
2023-02-24T20:11:51.165Z,30.53
2023-02-24T20:14:20.384Z,40.60
2023-02-24T20:16:48.144Z,38.50
2023-02-24T20:19:16.215Z,34.93
2023-02-24T20:21:43.631Z,29.80
2023-02-24T20:24:14.082Z,30.47
2023-02-24T20:26:43.796Z,30.87
2023-02-24T20:29:11.630Z,27.03
2023-02-24T20:31:40.098Z,21.97
2023-02-24T20:34:10.756Z,12.88
2023-02-24T20:36:38.394Z,40.97
2023-02-24T20:39:07.043Z,13.80
2023-02-24T20:41:35.195Z,10.75
2023-02-24T20:44:02.538Z,31.37
2023-02-24T20:46:31.969Z,63.87
2023-02-24T20:49:02.721Z,33.47
2023-02-24T20:51:32.092Z,31.33
2023-02-24T20:54:00.566Z,16.27
2023-02-24T20:56:30.056Z,10.23
2023-02-24T20:59:08.706Z,10.90
2023-02-24T21:01:37.860Z,16.23
2023-02-24T21:04:05.613Z,25.12
2023-02-24T21:06:34.574Z,29.23
2023-02-24T21:11:30.413Z,29.93
2023-02-24T21:13:58.674Z,37.50
2023-02-24T21:16:27.656Z,27.13
2023-02-24T21:18:56.531Z,15.48
2023-02-24T21:21:24.361Z,22.02
2023-02-24T21:23:52.307Z,19.80
2023-02-24T21:26:20.273Z,13.97
2023-02-24T21:28:47.865Z,14.17
2023-02-24T21:31:18.404Z,17.13
2023-02-24T21:33:50.309Z,19.67
2023-02-24T21:36:21.573Z,12.43
2023-02-24T21:38:49.341Z,15.53
2023-02-24T21:41:19.642Z,10.90
2023-02-24T21:43:48.386Z,9.77
2023-02-24T21:46:16.177Z,10.10
2023-02-24T21:48:43.793Z,10.37
2023-02-24T21:51:13.000Z,18.13
2023-02-24T21:53:43.736Z,20.90
2023-02-24T21:56:19.381Z,16.17
2023-02-24T21:58:56.357Z,15.30
2023-02-24T22:01:33.115Z,12.77
2023-02-24T22:04:04.023Z,13.40
2023-02-24T22:06:33.668Z,18.97
2023-02-24T22:09:03.218Z,27.77
2023-02-24T22:13:59.003Z,31.15
2023-02-24T22:16:27.693Z,32.90
2023-02-24T22:18:55.978Z,26.95
2023-02-24T22:21:26.350Z,22.37
2023-02-24T22:23:57.157Z,32.43
2023-02-24T22:26:25.741Z,15.30
2023-02-24T22:28:54.511Z,10.73
2023-02-24T22:31:24.786Z,11.10
2023-02-24T22:33:52.251Z,16.07
2023-02-24T22:36:24.837Z,11.90
2023-02-24T22:38:54.730Z,11.57
2023-02-24T22:41:28.415Z,11.07
2023-02-24T22:43:55.787Z,12.87
2023-02-24T22:46:26.635Z,11.63
2023-02-24T22:48:55.606Z,10.83
2023-02-24T22:51:24.987Z,18.17
2023-02-24T22:56:22.780Z,25.57
2023-02-24T22:58:51.051Z,27.37
2023-02-24T23:01:22.357Z,18.83
2023-02-24T23:03:49.897Z,24.77
2023-02-24T23:06:21.372Z,28.50
2023-02-24T23:08:50.604Z,25.77
2023-02-24T23:13:50.206Z,11.90
2023-02-24T23:16:22.185Z,11.47
2023-02-24T23:18:54.109Z,12.07
2023-02-24T23:21:25.071Z,11.80
2023-02-24T23:23:56.969Z,12.10
2023-02-24T23:26:31.874Z,12.30
2023-02-24T23:28:59.740Z,14.33
2023-02-24T23:31:27.561Z,12.87
2023-02-24T23:33:55.255Z,12.33
2023-02-24T23:36:24.695Z,13.98
2023-02-24T23:38:53.007Z,11.73
2023-02-24T23:41:20.423Z,12.37
2023-02-24T23:43:47.875Z,11.93
2023-02-24T23:46:15.599Z,11.33
2023-02-24T23:48:42.946Z,12.17
2023-02-24T23:51:13.185Z,14.73
2023-02-24T23:53:43.354Z,14.57
2023-02-24T23:56:18.054Z,13.13
2023-02-24T23:58:50.654Z,19.93
